createdAt,value
2018-06-22T00:01:46.930Z,98.20
2018-06-22T00:04:15.839Z,98.20
2018-06-22T00:06:44.960Z,98.40
2018-06-22T00:09:13.900Z,98.40
2018-06-22T00:11:42.830Z,98.70
2018-06-22T00:14:11.646Z,98.70
2018-06-22T00:16:40.615Z,97.90
2018-06-22T00:19:09.459Z,98.50
2018-06-22T00:21:38.686Z,98.80
2018-06-22T00:24:07.550Z,98.60
2018-06-22T00:26:36.431Z,98.90
2018-06-22T00:29:05.955Z,99.00
2018-06-22T00:31:35.112Z,99.40
2018-06-22T00:34:04.017Z,99.00
2018-06-22T00:36:32.907Z,99.20
2018-06-22T00:41:30.627Z,98.60
2018-06-22T00:43:59.505Z,97.90
2018-06-22T00:46:28.482Z,98.70
2018-06-22T00:48:57.316Z,98.60
2018-06-22T00:51:26.191Z,98.90
2018-06-22T00:54:10.956Z,98.80
2018-06-22T00:56:39.855Z,98.50
2018-06-22T00:59:08.794Z,98.40
2018-06-22T01:01:37.687Z,98.50
2018-06-22T01:06:35.648Z,97.80
2018-06-22T01:09:12.328Z,97.70
2018-06-22T01:11:41.251Z,97.10
2018-06-22T01:14:11.051Z,98.10
2018-06-22T01:16:40.102Z,98.00
2018-06-22T01:19:08.975Z,98.50
2018-06-22T01:21:37.935Z,99.00
2018-06-22T01:24:06.765Z,98.60
2018-06-22T01:26:35.648Z,98.20
2018-06-22T01:29:10.131Z,97.90
2018-06-22T01:31:39.080Z,97.90
2018-06-22T01:34:07.955Z,97.50
2018-06-22T01:36:36.874Z,97.70
2018-06-22T01:39:07.783Z,98.20
2018-06-22T01:41:36.634Z,98.40
2018-06-22T01:44:05.786Z,98.50
2018-06-22T01:46:35.139Z,97.70
2018-06-22T01:49:11.036Z,98.30
2018-06-22T01:51:40.012Z,97.80
2018-06-22T01:54:08.851Z,97.50
2018-06-22T01:56:37.776Z,98.00
2018-06-22T01:59:06.605Z,98.20
2018-06-22T02:01:35.978Z,97.50
2018-06-22T02:04:04.832Z,98.00
2018-06-22T02:09:03.665Z,97.80
2018-06-22T02:11:32.543Z,97.40
2018-06-22T02:16:30.911Z,98.40
2018-06-22T02:19:00.223Z,97.30
2018-06-22T02:21:29.492Z,98.20
2018-06-22T02:23:58.693Z,98.50
2018-06-22T02:26:27.851Z,98.90
2018-06-22T02:28:56.707Z,97.10
2018-06-22T02:33:54.618Z,97.90
2018-06-22T02:36:23.464Z,97.10
2018-06-22T02:38:52.303Z,98.40
2018-06-22T02:41:21.172Z,98.50
2018-06-22T02:43:50.020Z,98.60
2018-06-22T02:46:18.851Z,98.10
2018-06-22T02:48:47.703Z,98.20
2018-06-22T02:51:16.662Z,98.50
2018-06-22T02:53:45.480Z,97.80
2018-06-22T02:56:14.304Z,97.50
2018-06-22T02:58:43.144Z,98.00
2018-06-22T03:01:11.976Z,97.80
2018-06-22T03:06:09.544Z,98.10
2018-06-22T03:08:38.386Z,97.90
2018-06-22T03:11:07.260Z,98.40
2018-06-22T03:13:36.103Z,97.70
2018-06-22T03:16:05.257Z,97.70
2018-06-22T03:18:34.106Z,98.10
2018-06-22T03:21:03.048Z,97.90
2018-06-22T03:23:31.848Z,98.40
2018-06-22T03:26:00.698Z,98.10
2018-06-22T03:28:29.538Z,98.20
2018-06-22T03:30:58.479Z,98.30
2018-06-22T03:33:28.164Z,98.20
2018-06-22T03:35:57.016Z,97.30
2018-06-22T03:38:25.894Z,97.40
2018-06-22T03:40:54.785Z,97.70
2018-06-22T03:43:23.629Z,98.00
2018-06-22T03:45:52.474Z,97.00
2018-06-22T03:48:21.299Z,98.10
2018-06-22T03:50:50.248Z,97.90
2018-06-22T03:53:19.106Z,97.30
2018-06-22T03:55:47.935Z,97.50
2018-06-22T03:58:16.782Z,97.90
2018-06-22T04:00:45.678Z,98.00
2018-06-22T04:03:14.555Z,98.10
2018-06-22T04:08:12.227Z,97.80
2018-06-22T04:13:09.868Z,97.10
2018-06-22T04:15:38.739Z,97.50
2018-06-22T04:18:07.603Z,98.40
2018-06-22T04:20:36.604Z,98.70
2018-06-22T04:23:05.516Z,98.20
2018-06-22T04:25:34.423Z,98.40
2018-06-22T04:28:03.291Z,97.80
2018-06-22T04:30:32.279Z,98.80
2018-06-22T04:33:01.116Z,98.60
2018-06-22T04:35:30.012Z,98.80
2018-06-22T04:37:59.256Z,98.40
2018-06-22T04:40:28.752Z,98.40
2018-06-22T04:42:57.707Z,98.20
2018-06-22T04:45:26.719Z,99.20
2018-06-22T04:50:26.083Z,98.40
2018-06-22T04:57:53.296Z,98.90
2018-06-22T05:00:22.566Z,98.20
2018-06-22T05:02:51.451Z,98.10
2018-06-22T05:05:20.300Z,98.30
2018-06-22T05:10:18.090Z,98.20
2018-06-22T05:12:46.950Z,98.40
2018-06-22T05:15:15.830Z,97.60
2018-06-22T05:17:44.715Z,98.00
2018-06-22T05:20:13.748Z,97.10
2018-06-22T05:22:42.758Z,97.30
2018-06-22T05:25:12.575Z,97.70
2018-06-22T05:30:10.626Z,97.90
2018-06-22T05:35:08.352Z,96.70
2018-06-22T05:37:37.563Z,97.80
2018-06-22T05:40:06.973Z,96.70
2018-06-22T05:42:37.151Z,96.90
2018-06-22T05:45:07.757Z,97.40
2018-06-22T05:47:36.941Z,97.50
2018-06-22T05:50:06.395Z,97.10
2018-06-22T05:52:35.582Z,96.00
2018-06-22T05:55:04.947Z,96.90
2018-06-22T05:57:34.216Z,96.80
2018-06-22T06:00:03.301Z,98.10
2018-06-22T06:05:01.564Z,97.70
2018-06-22T06:07:30.436Z,97.80
2018-06-22T06:12:28.636Z,97.80
2018-06-22T06:14:57.552Z,98.00
2018-06-22T06:17:26.677Z,98.30
2018-06-22T06:19:56.001Z,97.60
2018-06-22T06:22:25.095Z,96.60
2018-06-22T06:24:54.077Z,95.40
2018-06-22T06:27:23.244Z,96.30
2018-06-22T06:29:52.259Z,97.30
2018-06-22T06:34:50.353Z,96.40
2018-06-22T06:37:20.290Z,94.70
2018-06-22T06:39:49.755Z,95.30
2018-06-22T06:44:47.430Z,96.50
2018-06-22T06:47:16.286Z,97.00
2018-06-22T06:49:45.565Z,95.60
2018-06-22T06:52:14.448Z,96.30
2018-06-22T06:54:43.711Z,96.70
2018-06-22T06:57:12.692Z,95.30
2018-06-22T06:59:41.885Z,96.20
2018-06-22T07:02:10.889Z,96.60
2018-06-22T07:04:40.275Z,94.20
2018-06-22T07:09:38.669Z,95.70
2018-06-22T07:12:08.666Z,95.60
2018-06-22T07:14:37.623Z,95.50
2018-06-22T07:17:06.822Z,95.30
2018-06-22T07:22:05.092Z,95.90
2018-06-22T07:24:34.667Z,95.70
2018-06-22T07:32:01.897Z,97.10
2018-06-22T07:34:30.737Z,94.90
2018-06-22T07:36:59.648Z,95.90
2018-06-22T07:39:28.553Z,93.70
2018-06-22T07:41:57.455Z,95.00
2018-06-22T07:44:26.834Z,95.20
2018-06-22T07:46:55.869Z,94.80
2018-06-22T07:49:25.180Z,94.50
2018-06-22T07:54:23.176Z,94.30
2018-06-22T07:56:52.056Z,94.80
2018-06-22T07:59:20.947Z,94.10
2018-06-22T08:01:49.965Z,93.90
2018-06-22T08:04:20.246Z,93.40
2018-06-22T08:06:49.376Z,94.60
2018-06-22T08:09:18.679Z,94.30
2018-06-22T08:11:47.725Z,93.30
2018-06-22T08:14:16.712Z,93.70
2018-06-22T08:16:45.602Z,93.70
2018-06-22T08:19:14.411Z,93.10
2018-06-22T08:21:44.169Z,94.70
2018-06-22T08:24:13.053Z,94.50
2018-06-22T08:26:42.472Z,93.50
2018-06-22T08:29:11.311Z,93.60
2018-06-22T08:31:40.285Z,93.90
2018-06-22T08:34:09.471Z,94.20
2018-06-22T08:36:38.373Z,93.70
2018-06-22T08:39:09.124Z,93.30
2018-06-22T08:41:39.180Z,95.20
2018-06-22T08:44:08.151Z,94.50
2018-06-22T08:46:37.460Z,94.30
2018-06-22T08:49:06.801Z,93.60
2018-06-22T08:51:36.060Z,93.10
2018-06-22T08:54:05.260Z,93.00
2018-06-22T08:56:34.479Z,93.40
2018-06-22T08:59:03.468Z,92.20
2018-06-22T09:01:32.773Z,91.90
2018-06-22T09:04:01.643Z,93.30
2018-06-22T09:06:30.484Z,94.10
2018-06-22T09:08:59.336Z,93.60
2018-06-22T09:11:28.276Z,95.10
2018-06-22T09:13:57.151Z,93.40
2018-06-22T09:16:26.004Z,94.60
2018-06-22T09:21:24.213Z,94.60
2018-06-22T09:23:53.176Z,95.50
2018-06-22T09:26:22.015Z,94.70
2018-06-22T09:28:50.879Z,95.10
2018-06-22T09:33:48.584Z,94.30
2018-06-22T09:36:17.450Z,95.20
2018-06-22T09:41:15.134Z,94.60
2018-06-22T09:43:43.951Z,94.00
2018-06-22T09:46:12.792Z,93.20
2018-06-22T09:51:10.427Z,92.90
2018-06-22T09:53:39.323Z,94.10
2018-06-22T09:56:08.217Z,92.30
2018-06-22T09:58:37.056Z,92.10
2018-06-22T10:03:34.959Z,91.60
2018-06-22T10:06:03.797Z,90.90
2018-06-22T10:08:32.701Z,91.30
2018-06-22T10:11:02.444Z,92.10
2018-06-22T10:13:31.564Z,92.40
2018-06-22T10:16:00.748Z,91.60
2018-06-22T10:18:29.688Z,91.60
2018-06-22T10:20:58.681Z,91.80
2018-06-22T10:25:56.953Z,90.10
2018-06-22T10:30:54.677Z,89.60
2018-06-22T10:33:23.694Z,90.40
2018-06-22T10:35:52.636Z,91.60
2018-06-22T10:38:21.790Z,91.50
2018-06-22T10:40:50.848Z,91.80
2018-06-22T10:43:19.798Z,92.90
2018-06-22T10:45:49.040Z,91.80
2018-06-22T10:48:18.912Z,91.30
2018-06-22T10:50:47.799Z,91.00
2018-06-22T10:53:17.689Z,91.60
2018-06-22T10:55:48.463Z,90.10
2018-06-22T10:58:17.759Z,90.30
2018-06-22T11:00:46.959Z,90.70
2018-06-22T11:03:15.881Z,89.10
2018-06-22T11:08:13.571Z,89.40
2018-06-22T11:10:42.495Z,90.30
2018-06-22T11:13:11.323Z,90.40
2018-06-22T11:15:41.030Z,85.90
2018-06-22T11:18:10.100Z,89.60
2018-06-22T11:23:08.222Z,86.40
2018-06-22T11:25:38.092Z,85.50
2018-06-22T11:28:07.690Z,87.00
2018-06-22T11:33:05.547Z,87.60
2018-06-22T11:40:32.684Z,85.40
2018-06-22T11:43:01.881Z,85.90
2018-06-22T11:48:00.901Z,85.10
2018-06-22T11:50:29.895Z,84.00
2018-06-22T11:52:58.776Z,84.50
2018-06-22T11:55:27.720Z,84.80
2018-06-22T11:57:56.607Z,82.00
2018-06-22T12:00:25.676Z,85.20
2018-06-22T12:02:54.642Z,80.70
2018-06-22T12:05:23.766Z,81.20
2018-06-22T12:07:52.866Z,85.30
2018-06-22T12:10:21.859Z,83.20
2018-06-22T12:12:50.800Z,84.40
2018-06-22T12:15:19.693Z,81.80
2018-06-22T12:17:48.585Z,84.20
2018-06-22T12:20:17.581Z,85.80
2018-06-22T12:22:46.443Z,80.40
2018-06-22T12:25:15.344Z,81.70
2018-06-22T12:27:44.203Z,80.10
2018-06-22T12:30:13.139Z,80.60
2018-06-22T12:32:42.015Z,83.10
2018-06-22T12:37:39.668Z,82.20
2018-06-22T12:40:08.708Z,79.20
2018-06-22T12:42:37.740Z,84.00
2018-06-22T12:45:06.929Z,81.00
2018-06-22T12:47:35.830Z,83.60
2018-06-22T12:50:05.003Z,81.40
2018-06-22T12:55:02.764Z,81.00
2018-06-22T12:57:31.705Z,82.10
2018-06-22T13:00:00.636Z,85.40
2018-06-22T13:02:29.612Z,81.70
2018-06-22T13:04:58.652Z,78.10
2018-06-22T13:07:27.538Z,77.90
2018-06-22T13:09:56.446Z,81.20
2018-06-22T13:12:25.420Z,78.40
2018-06-22T13:14:55.603Z,76.70
2018-06-22T13:17:24.488Z,78.10
2018-06-22T13:19:53.443Z,76.80
2018-06-22T13:22:22.348Z,75.60
2018-06-22T13:24:51.334Z,77.30
2018-06-22T13:27:20.220Z,77.30
2018-06-22T13:29:49.172Z,77.20
2018-06-22T13:32:18.188Z,76.80
2018-06-22T13:34:47.045Z,78.10
2018-06-22T13:37:16.056Z,79.60
2018-06-22T13:39:44.978Z,77.50
2018-06-22T13:42:13.952Z,74.40
2018-06-22T13:44:42.913Z,75.90
2018-06-22T13:47:11.783Z,76.90
2018-06-22T13:49:41.446Z,75.00
2018-06-22T13:52:10.793Z,77.50
2018-06-22T13:54:39.972Z,78.00
2018-06-22T13:57:09.589Z,77.60
2018-06-22T13:59:39.068Z,80.50
2018-06-22T14:04:43.129Z,79.50
2018-06-22T14:07:12.191Z,80.60
2018-06-22T14:09:41.875Z,81.20
2018-06-22T14:12:11.343Z,79.30
2018-06-22T14:14:40.275Z,80.60
2018-06-22T14:17:09.564Z,79.20
2018-06-22T14:19:38.754Z,82.60
2018-06-22T14:22:08.016Z,77.50
2018-06-22T14:24:37.693Z,77.90
2018-06-22T14:27:07.075Z,78.50
2018-06-22T14:29:36.287Z,77.60
2018-06-22T14:32:05.441Z,76.10
2018-06-22T14:34:34.820Z,75.70
2018-06-22T14:37:04.344Z,75.60
2018-06-22T14:39:33.613Z,75.70
2018-06-22T14:42:02.888Z,75.80
2018-06-22T14:47:01.029Z,76.70
2018-06-22T14:49:30.207Z,76.60
2018-06-22T14:52:00.707Z,77.00
2018-06-22T14:54:35.636Z,75.70
2018-06-22T14:59:45.144Z,78.40
2018-06-22T15:02:19.898Z,77.30
2018-06-22T15:04:54.466Z,78.20
2018-06-22T15:07:30.384Z,79.90
2018-06-22T15:09:59.549Z,79.40
2018-06-22T15:12:28.861Z,78.00
2018-06-22T15:14:57.936Z,78.50
2018-06-22T15:17:26.972Z,77.50
2018-06-22T15:19:56.136Z,77.60
2018-06-22T15:22:25.061Z,79.90
2018-06-22T15:24:53.988Z,77.40
2018-06-22T15:27:24.333Z,78.00
2018-06-22T15:29:53.470Z,81.40
2018-06-22T15:32:22.670Z,79.90
2018-06-22T15:34:57.485Z,79.40
2018-06-22T15:37:32.066Z,80.20
2018-06-22T15:40:06.706Z,79.50
2018-06-22T15:43:43.400Z,79.80
2018-06-22T15:51:28.457Z,79.10
2018-06-22T15:54:03.020Z,77.40
2018-06-22T15:56:31.978Z,78.30
2018-06-22T15:59:00.848Z,77.70
2018-06-22T16:01:30.599Z,78.00
2018-06-22T16:04:00.177Z,77.80
2018-06-22T16:06:29.758Z,77.40
2018-06-22T16:08:59.040Z,78.70
2018-06-22T16:14:03.972Z,78.10
2018-06-22T16:16:38.560Z,78.70
2018-06-22T16:19:13.810Z,78.40
2018-06-22T16:21:48.480Z,79.40
2018-06-22T16:25:42.440Z,80.40
2018-06-22T16:28:11.478Z,80.40
2018-06-22T16:30:40.899Z,79.30
2018-06-22T16:33:10.776Z,78.70
2018-06-22T16:38:09.046Z,81.00
2018-06-22T16:43:08.331Z,80.80
2018-06-22T16:45:37.330Z,81.80
2018-06-22T16:48:06.729Z,80.60
2018-06-22T16:50:35.824Z,81.00
2018-06-22T16:55:33.836Z,83.20
2018-06-22T16:58:03.085Z,81.90
2018-06-22T17:00:32.178Z,81.30
2018-06-22T17:03:01.461Z,74.50
2018-06-22T17:05:30.607Z,75.80
2018-06-22T17:08:05.111Z,73.50
2018-06-22T17:10:40.336Z,66.30
2018-06-22T17:13:15.367Z,72.80
2018-06-22T17:15:50.248Z,64.60
2018-06-22T17:18:24.933Z,64.70
2018-06-22T17:20:54.080Z,58.30
2018-06-22T17:23:22.990Z,59.60
2018-06-22T17:25:52.486Z,57.20
2018-06-22T17:30:50.415Z,56.40
2018-06-22T17:33:19.339Z,57.00
2018-06-22T17:35:48.276Z,57.00
2018-06-22T17:38:17.336Z,56.70
2018-06-22T17:40:46.632Z,56.30
2018-06-22T17:43:15.772Z,58.70
2018-06-22T17:45:44.750Z,59.70
2018-06-22T17:48:13.868Z,60.40
2018-06-22T17:50:42.987Z,56.60
2018-06-22T17:53:11.949Z,58.70
2018-06-22T17:55:41.090Z,57.80
2018-06-22T17:58:10.332Z,59.30
2018-06-22T18:00:45.726Z,59.30
2018-06-22T18:05:55.308Z,59.80
2018-06-22T18:08:30.259Z,62.00
2018-06-22T18:11:04.941Z,60.20
2018-06-22T18:13:33.904Z,56.30
2018-06-22T18:16:03.520Z,61.80
2018-06-22T18:18:33.642Z,58.10
2018-06-22T18:23:31.807Z,57.00
2018-06-22T18:26:01.055Z,58.30
2018-06-22T18:28:30.239Z,61.90
2018-06-22T18:30:59.788Z,58.60
2018-06-22T18:33:29.044Z,57.10
2018-06-22T18:35:58.293Z,59.60
2018-06-22T18:38:27.360Z,61.10
2018-06-22T18:40:56.441Z,56.30
2018-06-22T18:43:31.200Z,59.10
2018-06-22T18:46:00.461Z,58.60
2018-06-22T18:48:29.857Z,62.30
2018-06-22T18:50:59.154Z,58.80
2018-06-22T18:53:33.948Z,59.80
2018-06-22T18:56:10.213Z,63.40
2018-06-22T18:58:45.141Z,63.00
2018-06-22T19:01:20.139Z,63.70
2018-06-22T19:03:50.225Z,63.80
2018-06-22T19:06:21.028Z,62.00
2018-06-22T19:08:50.456Z,64.30
2018-06-22T19:11:20.200Z,63.70
2018-06-22T19:13:49.488Z,62.70
2018-06-22T19:16:18.600Z,65.60
2018-06-22T19:18:47.664Z,61.70
2018-06-22T19:21:16.765Z,61.70
2018-06-22T19:23:45.896Z,60.10
2018-06-22T19:26:15.285Z,57.50
2018-06-22T19:28:45.359Z,58.30
2018-06-22T19:31:14.791Z,58.90
2018-06-22T19:36:14.135Z,62.40
2018-06-22T19:38:43.600Z,61.50
2018-06-22T19:41:12.839Z,65.70
2018-06-22T19:48:56.774Z,65.20
2018-06-22T19:51:31.940Z,66.50
2018-06-22T19:54:07.117Z,67.20
2018-06-22T19:56:36.396Z,67.50
2018-06-22T20:01:34.957Z,68.30
2018-06-22T20:04:04.855Z,64.40
2018-06-22T20:06:33.791Z,66.40
2018-06-22T20:09:05.666Z,67.60
2018-06-22T20:11:34.572Z,69.60
2018-06-22T20:14:04.397Z,68.70
2018-06-22T20:16:33.770Z,72.70
2018-06-22T20:19:02.933Z,73.10
2018-06-22T20:21:32.191Z,72.00
2018-06-22T20:24:02.051Z,72.80
2018-06-22T20:26:31.139Z,72.50
2018-06-22T20:29:00.354Z,73.30
2018-06-22T20:31:35.153Z,72.50
2018-06-22T20:34:09.909Z,72.70
2018-06-22T20:36:44.791Z,70.00
2018-06-22T20:42:54.078Z,71.10
2018-06-22T20:45:29.085Z,72.80
2018-06-22T20:48:04.492Z,72.20
2018-06-22T20:50:36.015Z,72.60
2018-06-22T20:55:35.196Z,71.20
2018-06-22T20:58:04.319Z,73.00
2018-06-22T21:00:33.865Z,73.50
2018-06-22T21:08:02.018Z,72.90
2018-06-22T21:10:31.555Z,74.00
2018-06-22T21:13:01.056Z,74.10
2018-06-22T21:15:30.592Z,74.60
2018-06-22T21:18:00.005Z,74.80
2018-06-22T21:20:29.031Z,75.70
2018-06-22T21:22:58.388Z,75.40
2018-06-22T21:25:27.683Z,75.10
2018-06-22T21:28:02.882Z,73.50
2018-06-22T21:30:37.719Z,75.60
2018-06-22T21:34:14.180Z,75.00
2018-06-22T21:36:49.666Z,77.30
2018-06-22T21:39:18.975Z,76.10
2018-06-22T21:41:48.367Z,76.10
2018-06-22T21:44:17.692Z,76.80
2018-06-22T21:46:46.725Z,75.30
2018-06-22T21:49:15.823Z,73.00
2018-06-22T21:51:45.054Z,72.80
2018-06-22T21:54:14.092Z,75.80
2018-06-22T21:56:43.006Z,76.10
2018-06-22T21:59:12.397Z,74.60
2018-06-22T22:01:42.010Z,75.00
2018-06-22T22:04:10.896Z,72.10
2018-06-22T22:09:09.530Z,73.80
2018-06-22T22:11:44.252Z,74.40
2018-06-22T22:14:13.171Z,75.60
2018-06-22T22:16:42.007Z,75.10
2018-06-22T22:19:10.922Z,74.60
2018-06-22T22:21:39.811Z,74.70
2018-06-22T22:24:09.631Z,75.40
2018-06-22T22:26:38.543Z,75.40
2018-06-22T22:29:09.235Z,75.40
2018-06-22T22:31:38.116Z,75.50
2018-06-22T22:34:07.131Z,75.90
2018-06-22T22:36:36.020Z,77.30
2018-06-22T22:39:06.883Z,76.80
2018-06-22T22:41:36.465Z,75.30
2018-06-22T22:44:05.362Z,75.60
2018-06-22T22:46:34.204Z,73.30
2018-06-22T22:49:03.438Z,74.80
2018-06-22T22:51:32.351Z,73.70
2018-06-22T22:54:01.243Z,72.80
2018-06-22T22:56:30.089Z,74.60
2018-06-22T22:58:58.963Z,75.00
2018-06-22T23:01:27.887Z,73.40
2018-06-22T23:03:56.733Z,75.90
2018-06-22T23:08:54.371Z,74.10
2018-06-22T23:11:23.219Z,74.90
2018-06-22T23:13:52.171Z,74.10
2018-06-22T23:16:27.839Z,76.10
2018-06-22T23:21:25.476Z,77.80
2018-06-22T23:23:54.334Z,76.60
2018-06-22T23:26:23.259Z,75.70
2018-06-22T23:28:52.088Z,77.00
2018-06-22T23:33:49.765Z,78.30
2018-06-22T23:36:18.611Z,78.00
2018-06-22T23:38:47.455Z,77.90
2018-06-22T23:41:16.399Z,79.10
2018-06-22T23:43:45.260Z,78.20
2018-06-22T23:46:14.148Z,77.60
2018-06-22T23:48:42.987Z,80.50
2018-06-22T23:51:11.851Z,80.50
2018-06-22T23:53:40.666Z,80.10
2018-06-22T23:56:09.835Z,81.10
2018-06-22T23:58:38.659Z,81.10
